Dai2kousei — JD2542 — position and weather

sailwx.info

Track history (hours):
 
Tides and Currents Weather Stations Pressure Air Temp Water Temp Dewpoint Dewpoint Depression Visibility Wind Speed Wind Dir Waves Ship Positions

Dai2kousei

Last reported at 2017-Feb-25 11:33 UTC. Time now 2017-Feb-25 11:52 UTC.
Position N 35°20' E 139°44'.

Length 77 m; draft 3.7 m.

MMSI: 431000467.

Date/timePositionNaut miles runAvg speedWind from/ knotsBaromVisibWave heightAir tempDewpointWater temp
2017-Feb-25 11:33N 35°20' E 139°44'1010.0
2017-Feb-25 10:33N 35°11' E 139°46'1111.1
2017-Feb-25 09:32N 35°01' E 139°38'10 0.2
2017-Feb-23 11:31N 34°59' E 139°27'1010.4
2017-Feb-23 10:34N 35°04' E 139°37'10 9.8
2017-Feb-23 09:33N 35°12' E 139°45'1010.3
2017-Feb-23 08:33N 35°22' E 139°42'9 9.3
2017-Feb-23 07:33N 35°30' E 139°46'1 0.7
2017-Feb-23 06:33N 35°31' E 139°45'0 0.0
2017-Feb-23 05:33N 35°31' E 139°45'0 0.0
2017-Feb-23 04:34N 35°31' E 139°45'0 0.0
2017-Feb-23 03:34N 35°31' E 139°45'0 0.0
2017-Feb-23 02:33N 35°31' E 139°45'0 0.0
2017-Feb-23 01:34N 35°31' E 139°45'0 0.0
2017-Feb-23 00:33N 35°31' E 139°45'0 0.0
2017-Feb-22 23:33N 35°31' E 139°45'0 0.0
2017-Feb-22 22:34N 35°31' E 139°45'2 1.8
2017-Feb-22 21:33N 35°30' E 139°47'3 3.0
2017-Feb-22 20:34N 35°31' E 139°51'0 0.0
2017-Feb-22 19:33N 35°31' E 139°51'0 0.0
2017-Feb-22 18:33N 35°31' E 139°51'0 0.0
2017-Feb-22 17:33N 35°31' E 139°51'0 0.0
2017-Feb-22 16:33N 35°31' E 139°51'0 0.0
2017-Feb-22 15:33N 35°31' E 139°51'0 0.0
2017-Feb-22 14:32N 35°31' E 139°51'0 0.0
2017-Feb-22 13:33N 35°31' E 139°51'0 0.1
2017-Feb-22 12:33N 35°31' E 139°51'0 0.1
2017-Feb-22 11:33N 35°31' E 139°51'0 0.0
2017-Feb-22 10:34N 35°31' E 139°51'0 0.0
2017-Feb-22 09:34N 35°31' E 139°51'0 0.1
2017-Feb-22 08:33N 35°31' E 139°51'0 0.1
2017-Feb-22 07:31N 35°31' E 139°51'0 0.0
2017-Feb-22 06:33N 35°31' E 139°51'0 0.0
2017-Feb-22 05:32N 35°31' E 139°51'1 0.5
2017-Feb-22 04:33N 35°31' E 139°51'8 0.6
2017-Feb-21 15:31N 35°33' E 140°00'1010.8
2017-Feb-21 14:34N 35°30' E 139°48'4 3.5
2017-Feb-21 13:34N 35°29' E 139°44'0 0.0
2017-Feb-21 12:33N 35°29' E 139°44'0 0.0
2017-Feb-21 11:33N 35°29' E 139°44'0 0.0
2017-Feb-21 10:33N 35°29' E 139°44'0 0.0
2017-Feb-21 09:33N 35°29' E 139°44'0 0.0
2017-Feb-21 08:33N 35°29' E 139°44'0 0.0
2017-Feb-21 07:34N 35°29' E 139°44'0 0.0
2017-Feb-21 06:34N 35°29' E 139°44'0 0.0
2017-Feb-21 05:34N 35°29' E 139°44'0 0.0
2017-Feb-21 04:34N 35°29' E 139°44'0 0.0
2017-Feb-21 03:33N 35°29' E 139°44'2 1.7
2017-Feb-21 02:33N 35°29' E 139°46'0 0.2
2017-Feb-21 01:33N 35°29' E 139°46'0 0.0
2017-Feb-21 00:33N 35°29' E 139°46'0 0.0
2017-Feb-20 23:33N 35°29' E 139°46'0 0.0
2017-Feb-20 22:31N 35°29' E 139°46'0 0.0
2017-Feb-20 21:33N 35°29' E 139°46'0 0.0
2017-Feb-20 20:30N 35°29' E 139°46'0 0.0
2017-Feb-20 19:33N 35°29' E 139°46'0 0.0
2017-Feb-20 18:34N 35°29' E 139°46'0 0.0
2017-Feb-20 17:33N 35°29' E 139°46'3 2.9
2017-Feb-20 16:33N 35°29' E 139°50'14 0.3
2017-Feb-18 22:11N 35°41' E 139°59'5 6.2
2017-Feb-18 21:22N 35°36' E 139°58'7 8.3
2017-Feb-18 20:33N 35°31' E 139°51'6 6.2
2017-Feb-18 19:33N 35°29' E 139°44'0 0.0
2017-Feb-18 18:33N 35°29' E 139°44'0 0.0
2017-Feb-18 17:33N 35°29' E 139°44'0 0.0
2017-Feb-18 16:33N 35°29' E 139°44'0 0.0
2017-Feb-18 15:33N 35°29' E 139°44'0 0.0
2017-Feb-18 14:33N 35°29' E 139°44'0 0.0
2017-Feb-18 13:33N 35°29' E 139°44'0 0.0
2017-Feb-18 12:33N 35°29' E 139°44'0 0.0
2017-Feb-18 11:33N 35°29' E 139°44'0 0.0
2017-Feb-18 10:33N 35°29' E 139°44'0 0.0
2017-Feb-18 09:33N 35°29' E 139°44'0 0.0
2017-Feb-18 08:33N 35°29' E 139°44'0 0.0
2017-Feb-18 07:33N 35°29' E 139°44'0 0.0
2017-Feb-18 06:33N 35°29' E 139°44'0 0.0
2017-Feb-18 05:33N 35°29' E 139°44'0 0.0
2017-Feb-18 04:33N 35°29' E 139°44'0 0.0
2017-Feb-18 03:33N 35°29' E 139°44'1 1.3
2017-Feb-18 02:33N 35°28' E 139°46'0 0.1
2017-Feb-18 01:33N 35°28' E 139°46'1110.7
2017-Feb-18 00:33N 35°18' E 139°45'1110.5
2017-Feb-17 23:33N 35°07' E 139°45'1110.6
2017-Feb-17 22:31N 34°59' E 139°35'  
Track history (hours):
 
Tides and Currents Weather Stations Pressure Air Temp Water Temp Dewpoint Dewpoint Depression Visibility Wind Speed Wind Dir Waves Ship Positions

Dai2kousei

Last reported at 2017-Feb-25 11:33 UTC. Time now 2017-Feb-25 11:52 UTC.
Position N 35°20' E 139°44'.

Length 77 m; draft 3.7 m.

MMSI: 431000467.

Date/timePositionNaut miles runAvg speedWind from/ knotsBaromVisibWave heightAir tempDewpointWater temp
2017-Feb-25 11:33N 35°20' E 139°44'1010.0
2017-Feb-25 10:33N 35°11' E 139°46'1111.1
2017-Feb-25 09:32N 35°01' E 139°38'10 0.2
2017-Feb-23 11:31N 34°59' E 139°27'1010.4
2017-Feb-23 10:34N 35°04' E 139°37'10 9.8
2017-Feb-23 09:33N 35°12' E 139°45'1010.3
2017-Feb-23 08:33N 35°22' E 139°42'9 9.3
2017-Feb-23 07:33N 35°30' E 139°46'1 0.7
2017-Feb-23 06:33N 35°31' E 139°45'0 0.0
2017-Feb-23 05:33N 35°31' E 139°45'0 0.0
2017-Feb-23 04:34N 35°31' E 139°45'0 0.0
2017-Feb-23 03:34N 35°31' E 139°45'0 0.0
2017-Feb-23 02:33N 35°31' E 139°45'0 0.0
2017-Feb-23 01:34N 35°31' E 139°45'0 0.0
2017-Feb-23 00:33N 35°31' E 139°45'0 0.0
2017-Feb-22 23:33N 35°31' E 139°45'0 0.0
2017-Feb-22 22:34N 35°31' E 139°45'2 1.8
2017-Feb-22 21:33N 35°30' E 139°47'3 3.0
2017-Feb-22 20:34N 35°31' E 139°51'0 0.0
2017-Feb-22 19:33N 35°31' E 139°51'0 0.0
2017-Feb-22 18:33N 35°31' E 139°51'0 0.0
2017-Feb-22 17:33N 35°31' E 139°51'0 0.0
2017-Feb-22 16:33N 35°31' E 139°51'0 0.0
2017-Feb-22 15:33N 35°31' E 139°51'0 0.0
2017-Feb-22 14:32N 35°31' E 139°51'0 0.0
2017-Feb-22 13:33N 35°31' E 139°51'0 0.1
2017-Feb-22 12:33N 35°31' E 139°51'0 0.1
2017-Feb-22 11:33N 35°31' E 139°51'0 0.0
2017-Feb-22 10:34N 35°31' E 139°51'0 0.0
2017-Feb-22 09:34N 35°31' E 139°51'0 0.1
2017-Feb-22 08:33N 35°31' E 139°51'0 0.1
2017-Feb-22 07:31N 35°31' E 139°51'0 0.0
2017-Feb-22 06:33N 35°31' E 139°51'0 0.0
2017-Feb-22 05:32N 35°31' E 139°51'1 0.5
2017-Feb-22 04:33N 35°31' E 139°51'8 0.6
2017-Feb-21 15:31N 35°33' E 140°00'1010.8
2017-Feb-21 14:34N 35°30' E 139°48'4 3.5
2017-Feb-21 13:34N 35°29' E 139°44'0 0.0
2017-Feb-21 12:33N 35°29' E 139°44'0 0.0
2017-Feb-21 11:33N 35°29' E 139°44'0 0.0
2017-Feb-21 10:33N 35°29' E 139°44'0 0.0
2017-Feb-21 09:33N 35°29' E 139°44'0 0.0
2017-Feb-21 08:33N 35°29' E 139°44'0 0.0
2017-Feb-21 07:34N 35°29' E 139°44'0 0.0
2017-Feb-21 06:34N 35°29' E 139°44'0 0.0
2017-Feb-21 05:34N 35°29' E 139°44'0 0.0
2017-Feb-21 04:34N 35°29' E 139°44'0 0.0
2017-Feb-21 03:33N 35°29' E 139°44'2 1.7
2017-Feb-21 02:33N 35°29' E 139°46'0 0.2
2017-Feb-21 01:33N 35°29' E 139°46'0 0.0
2017-Feb-21 00:33N 35°29' E 139°46'0 0.0
2017-Feb-20 23:33N 35°29' E 139°46'0 0.0
2017-Feb-20 22:31N 35°29' E 139°46'0 0.0
2017-Feb-20 21:33N 35°29' E 139°46'0 0.0
2017-Feb-20 20:30N 35°29' E 139°46'0 0.0
2017-Feb-20 19:33N 35°29' E 139°46'0 0.0
2017-Feb-20 18:34N 35°29' E 139°46'0 0.0
2017-Feb-20 17:33N 35°29' E 139°46'3 2.9
2017-Feb-20 16:33N 35°29' E 139°50'14 0.3
2017-Feb-18 22:11N 35°41' E 139°59'5 6.2
2017-Feb-18 21:22N 35°36' E 139°58'7 8.3
2017-Feb-18 20:33N 35°31' E 139°51'6 6.2
2017-Feb-18 19:33N 35°29' E 139°44'0 0.0
2017-Feb-18 18:33N 35°29' E 139°44'0 0.0
2017-Feb-18 17:33N 35°29' E 139°44'0 0.0
2017-Feb-18 16:33N 35°29' E 139°44'0 0.0
2017-Feb-18 15:33N 35°29' E 139°44'0 0.0
2017-Feb-18 14:33N 35°29' E 139°44'0 0.0
2017-Feb-18 13:33N 35°29' E 139°44'0 0.0
2017-Feb-18 12:33N 35°29' E 139°44'0 0.0
2017-Feb-18 11:33N 35°29' E 139°44'0 0.0
2017-Feb-18 10:33N 35°29' E 139°44'0 0.0
2017-Feb-18 09:33N 35°29' E 139°44'0 0.0
2017-Feb-18 08:33N 35°29' E 139°44'0 0.0
2017-Feb-18 07:33N 35°29' E 139°44'0 0.0
2017-Feb-18 06:33N 35°29' E 139°44'0 0.0
2017-Feb-18 05:33N 35°29' E 139°44'0 0.0
2017-Feb-18 04:33N 35°29' E 139°44'0 0.0
2017-Feb-18 03:33N 35°29' E 139°44'1 1.3
2017-Feb-18 02:33N 35°28' E 139°46'0 0.1
2017-Feb-18 01:33N 35°28' E 139°46'1110.7
2017-Feb-18 00:33N 35°18' E 139°45'1110.5
2017-Feb-17 23:33N 35°07' E 139°45'1110.6
2017-Feb-17 22:31N 34°59' E 139°35'  

Dump ship's entire track history